sensor_id;sensor_type;location;lat;lon;timestamp;P1;durP1;ratioP1;P2;durP2;ratioP2
22603;SDS011;11469;49.024;8.246;2023-04-25T00:00:31;6.38;;;4.45;;
22603;SDS011;11469;49.024;8.246;2023-04-25T00:02:57;5.85;;;4.13;;
22603;SDS011;11469;49.024;8.246;2023-04-25T00:05:22;7.88;;;4.60;;
22603;SDS011;11469;49.024;8.246;2023-04-25T00:07:49;7.95;;;4.95;;
22603;SDS011;11469;49.024;8.246;2023-04-25T00:10:15;8.95;;;4.82;;
22603;SDS011;11469;49.024;8.246;2023-04-25T00:12:40;6.20;;;4.43;;
22603;SDS011;11469;49.024;8.246;2023-04-25T00:15:06;7.05;;;4.63;;
22603;SDS011;11469;49.024;8.246;2023-04-25T00:17:32;8.52;;;4.90;;
22603;SDS011;11469;49.024;8.246;2023-04-25T00:20:00;8.43;;;4.82;;
22603;SDS011;11469;49.024;8.246;2023-04-25T00:22:25;8.07;;;5.18;;
22603;SDS011;11469;49.024;8.246;2023-04-25T00:24:51;8.68;;;4.78;;
22603;SDS011;11469;49.024;8.246;2023-04-25T00:27:18;8.15;;;4.63;;
22603;SDS011;11469;49.024;8.246;2023-04-25T00:29:43;9.43;;;4.55;;
22603;SDS011;11469;49.024;8.246;2023-04-25T00:32:09;8.30;;;5.22;;
22603;SDS011;11469;49.024;8.246;2023-04-25T00:34:35;6.72;;;4.30;;
22603;SDS011;11469;49.024;8.246;2023-04-25T00:37:00;10.45;;;4.50;;
22603;SDS011;11469;49.024;8.246;2023-04-25T00:39:27;8.15;;;4.60;;
22603;SDS011;11469;49.024;8.246;2023-04-25T00:41:53;8.13;;;4.40;;
22603;SDS011;11469;49.024;8.246;2023-04-25T00:44:19;5.88;;;3.78;;
22603;SDS011;11469;49.024;8.246;2023-04-25T00:46:47;9.10;;;4.47;;
22603;SDS011;11469;49.024;8.246;2023-04-25T00:49:13;7.72;;;5.03;;
22603;SDS011;11469;49.024;8.246;2023-04-25T00:51:40;7.95;;;5.18;;
22603;SDS011;11469;49.024;8.246;2023-04-25T00:54:06;7.15;;;5.13;;
22603;SDS011;11469;49.024;8.246;2023-04-25T00:56:32;8.38;;;4.90;;
22603;SDS011;11469;49.024;8.246;2023-04-25T00:58:57;9.20;;;5.30;;
22603;SDS011;11469;49.024;8.246;2023-04-25T01:01:23;6.63;;;5.13;;
22603;SDS011;11469;49.024;8.246;2023-04-25T01:03:49;6.43;;;4.45;;
22603;SDS011;11469;49.024;8.246;2023-04-25T01:06:16;7.65;;;5.25;;
22603;SDS011;11469;49.024;8.246;2023-04-25T01:08:41;6.80;;;4.93;;
22603;SDS011;11469;49.024;8.246;2023-04-25T01:11:07;5.60;;;4.45;;
22603;SDS011;11469;49.024;8.246;2023-04-25T01:13:32;9.55;;;5.25;;
22603;SDS011;11469;49.024;8.246;2023-04-25T01:15:59;7.93;;;4.75;;
22603;SDS011;11469;49.024;8.246;2023-04-25T01:18:25;9.00;;;5.25;;
22603;SDS011;11469;49.024;8.246;2023-04-25T01:20:51;8.60;;;5.65;;
22603;SDS011;11469;49.024;8.246;2023-04-25T01:23:18;8.18;;;5.53;;
22603;SDS011;11469;49.024;8.246;2023-04-25T01:25:48;7.40;;;5.18;;
22603;SDS011;11469;49.024;8.246;2023-04-25T01:28:14;12.45;;;5.13;;
22603;SDS011;11469;49.024;8.246;2023-04-25T01:30:40;9.25;;;5.32;;
22603;SDS011;11469;49.024;8.246;2023-04-25T01:33:06;6.60;;;5.05;;
22603;SDS011;11469;49.024;8.246;2023-04-25T01:35:33;7.03;;;5.15;;
22603;SDS011;11469;49.024;8.246;2023-04-25T01:37:59;9.68;;;6.22;;
22603;SDS011;11469;49.024;8.246;2023-04-25T01:40:24;7.00;;;5.30;;
22603;SDS011;11469;49.024;8.246;2023-04-25T01:42:50;7.28;;;5.68;;
22603;SDS011;11469;49.024;8.246;2023-04-25T01:45:16;10.95;;;5.72;;
22603;SDS011;11469;49.024;8.246;2023-04-25T01:47:42;8.88;;;5.53;;
22603;SDS011;11469;49.024;8.246;2023-04-25T01:50:08;9.02;;;5.90;;
22603;SDS011;11469;49.024;8.246;2023-04-25T01:52:34;9.13;;;6.20;;
22603;SDS011;11469;49.024;8.246;2023-04-25T01:55:00;9.50;;;5.75;;
22603;SDS011;11469;49.024;8.246;2023-04-25T01:57:27;12.95;;;6.28;;
22603;SDS011;11469;49.024;8.246;2023-04-25T01:59:58;10.85;;;6.65;;
22603;SDS011;11469;49.024;8.246;2023-04-25T02:02:25;9.88;;;6.60;;
22603;SDS011;11469;49.024;8.246;2023-04-25T02:04:51;9.43;;;6.65;;
22603;SDS011;11469;49.024;8.246;2023-04-25T02:07:16;10.23;;;6.30;;
22603;SDS011;11469;49.024;8.246;2023-04-25T02:09:42;9.02;;;6.57;;
22603;SDS011;11469;49.024;8.246;2023-04-25T02:12:08;11.00;;;6.68;;
22603;SDS011;11469;49.024;8.246;2023-04-25T02:14:35;11.43;;;7.28;;
22603;SDS011;11469;49.024;8.246;2023-04-25T02:17:00;8.15;;;5.63;;
22603;SDS011;11469;49.024;8.246;2023-04-25T02:19:26;8.65;;;6.28;;
22603;SDS011;11469;49.024;8.246;2023-04-25T02:21:51;9.40;;;6.75;;
22603;SDS011;11469;49.024;8.246;2023-04-25T02:24:17;7.80;;;5.97;;
22603;SDS011;11469;49.024;8.246;2023-04-25T02:26:42;9.20;;;6.50;;
22603;SDS011;11469;49.024;8.246;2023-04-25T02:29:08;8.73;;;6.00;;
22603;SDS011;11469;49.024;8.246;2023-04-25T02:31:34;9.07;;;6.45;;
22603;SDS011;11469;49.024;8.246;2023-04-25T02:33:59;9.70;;;5.57;;
22603;SDS011;11469;49.024;8.246;2023-04-25T02:36:25;8.45;;;5.88;;
22603;SDS011;11469;49.024;8.246;2023-04-25T02:38:51;10.13;;;6.07;;
22603;SDS011;11469;49.024;8.246;2023-04-25T02:41:16;9.45;;;6.47;;
22603;SDS011;11469;49.024;8.246;2023-04-25T02:43:42;9.80;;;6.18;;
22603;SDS011;11469;49.024;8.246;2023-04-25T02:46:08;9.07;;;5.80;;
22603;SDS011;11469;49.024;8.246;2023-04-25T02:48:33;12.13;;;6.07;;
22603;SDS011;11469;49.024;8.246;2023-04-25T02:50:59;8.63;;;6.38;;
22603;SDS011;11469;49.024;8.246;2023-04-25T02:53:24;9.75;;;6.28;;
22603;SDS011;11469;49.024;8.246;2023-04-25T02:55:49;7.40;;;5.68;;
22603;SDS011;11469;49.024;8.246;2023-04-25T02:58:17;11.18;;;6.90;;
22603;SDS011;11469;49.024;8.246;2023-04-25T03:00:42;8.88;;;6.20;;
22603;SDS011;11469;49.024;8.246;2023-04-25T03:03:08;8.68;;;6.65;;
22603;SDS011;11469;49.024;8.246;2023-04-25T03:05:33;8.40;;;6.82;;
22603;SDS011;11469;49.024;8.246;2023-04-25T03:07:58;14.15;;;7.65;;
22603;SDS011;11469;49.024;8.246;2023-04-25T03:10:24;8.95;;;5.85;;
22603;SDS011;11469;49.024;8.246;2023-04-25T03:12:49;11.52;;;7.43;;
22603;SDS011;11469;49.024;8.246;2023-04-25T03:15:15;12.60;;;6.70;;
22603;SDS011;11469;49.024;8.246;2023-04-25T03:17:41;8.00;;;6.05;;
22603;SDS011;11469;49.024;8.246;2023-04-25T03:20:07;10.23;;;6.72;;
22603;SDS011;11469;49.024;8.246;2023-04-25T03:22:33;10.90;;;6.97;;
22603;SDS011;11469;49.024;8.246;2023-04-25T03:24:59;9.45;;;7.18;;
22603;SDS011;11469;49.024;8.246;2023-04-25T03:27:24;10.27;;;6.28;;
22603;SDS011;11469;49.024;8.246;2023-04-25T03:29:49;8.43;;;5.93;;
22603;SDS011;11469;49.024;8.246;2023-04-25T03:32:15;9.55;;;6.85;;
22603;SDS011;11469;49.024;8.246;2023-04-25T03:34:40;8.68;;;6.03;;
22603;SDS011;11469;49.024;8.246;2023-04-25T03:37:06;9.13;;;6.22;;
22603;SDS011;11469;49.024;8.246;2023-04-25T03:39:31;7.93;;;5.95;;
22603;SDS011;11469;49.024;8.246;2023-04-25T03:41:57;8.20;;;5.75;;
22603;SDS011;11469;49.024;8.246;2023-04-25T03:44:22;10.52;;;6.35;;
22603;SDS011;11469;49.024;8.246;2023-04-25T03:46:49;12.93;;;6.20;;
22603;SDS011;11469;49.024;8.246;2023-04-25T03:49:14;9.05;;;6.28;;
22603;SDS011;11469;49.024;8.246;2023-04-25T03:51:41;11.40;;;7.03;;
22603;SDS011;11469;49.024;8.246;2023-04-25T03:54:06;9.75;;;6.97;;
22603;SDS011;11469;49.024;8.246;2023-04-25T03:56:32;11.13;;;7.20;;
22603;SDS011;11469;49.024;8.246;2023-04-25T03:58:58;9.52;;;7.30;;
22603;SDS011;11469;49.024;8.246;2023-04-25T04:01:23;7.95;;;6.30;;
22603;SDS011;11469;49.024;8.246;2023-04-25T04:03:48;11.18;;;6.93;;
22603;SDS011;11469;49.024;8.246;2023-04-25T04:06:14;11.48;;;6.72;;
22603;SDS011;11469;49.024;8.246;2023-04-25T04:08:39;8.95;;;6.82;;
22603;SDS011;11469;49.024;8.246;2023-04-25T04:11:05;11.00;;;6.82;;
22603;SDS011;11469;49.024;8.246;2023-04-25T04:13:30;12.15;;;7.45;;
22603;SDS011;11469;49.024;8.246;2023-04-25T04:15:56;8.07;;;6.50;;
22603;SDS011;11469;49.024;8.246;2023-04-25T04:18:22;11.27;;;7.10;;
22603;SDS011;11469;49.024;8.246;2023-04-25T04:20:47;14.68;;;7.70;;
22603;SDS011;11469;49.024;8.246;2023-04-25T04:23:13;12.05;;;7.43;;
22603;SDS011;11469;49.024;8.246;2023-04-25T04:25:38;10.25;;;6.95;;
22603;SDS011;11469;49.024;8.246;2023-04-25T04:28:04;10.85;;;7.88;;
22603;SDS011;11469;49.024;8.246;2023-04-25T04:30:31;12.23;;;7.13;;
22603;SDS011;11469;49.024;8.246;2023-04-25T04:32:58;9.63;;;7.18;;
22603;SDS011;11469;49.024;8.246;2023-04-25T04:35:24;10.20;;;7.28;;
22603;SDS011;11469;49.024;8.246;2023-04-25T04:37:49;11.48;;;6.63;;
22603;SDS011;11469;49.024;8.246;2023-04-25T04:40:15;9.25;;;6.18;;
22603;SDS011;11469;49.024;8.246;2023-04-25T04:42:44;11.63;;;7.00;;
22603;SDS011;11469;49.024;8.246;2023-04-25T04:45:13;12.35;;;7.40;;
22603;SDS011;11469;49.024;8.246;2023-04-25T04:47:39;11.95;;;7.25;;
22603;SDS011;11469;49.024;8.246;2023-04-25T04:50:09;13.77;;;9.27;;
22603;SDS011;11469;49.024;8.246;2023-04-25T04:52:35;12.65;;;9.18;;
22603;SDS011;11469;49.024;8.246;2023-04-25T04:55:01;13.45;;;9.60;;
22603;SDS011;11469;49.024;8.246;2023-04-25T04:57:28;11.38;;;7.53;;
22603;SDS011;11469;49.024;8.246;2023-04-25T04:59:53;14.05;;;7.97;;
22603;SDS011;11469;49.024;8.246;2023-04-25T05:02:19;13.77;;;7.82;;
22603;SDS011;11469;49.024;8.246;2023-04-25T05:04:44;10.27;;;7.25;;
22603;SDS011;11469;49.024;8.246;2023-04-25T05:07:10;13.30;;;7.80;;
22603;SDS011;11469;49.024;8.246;2023-04-25T05:09:36;10.75;;;7.30;;
22603;SDS011;11469;49.024;8.246;2023-04-25T05:12:01;10.23;;;6.97;;
22603;SDS011;11469;49.024;8.246;2023-04-25T05:14:27;10.70;;;7.00;;
22603;SDS011;11469;49.024;8.246;2023-04-25T05:16:52;11.50;;;7.22;;
22603;SDS011;11469;49.024;8.246;2023-04-25T05:19:17;12.43;;;6.78;;
22603;SDS011;11469;49.024;8.246;2023-04-25T05:21:43;10.32;;;7.28;;
22603;SDS011;11469;49.024;8.246;2023-04-25T05:24:08;10.65;;;7.00;;
22603;SDS011;11469;49.024;8.246;2023-04-25T05:26:34;11.20;;;6.93;;
22603;SDS011;11469;49.024;8.246;2023-04-25T05:28:59;10.68;;;7.47;;
22603;SDS011;11469;49.024;8.246;2023-04-25T05:31:25;12.82;;;6.38;;
22603;SDS011;11469;49.024;8.246;2023-04-25T05:33:51;9.50;;;6.63;;
22603;SDS011;11469;49.024;8.246;2023-04-25T05:36:18;17.15;;;10.80;;
22603;SDS011;11469;49.024;8.246;2023-04-25T05:38:43;16.02;;;8.57;;
22603;SDS011;11469;49.024;8.246;2023-04-25T05:41:09;14.65;;;7.80;;
22603;SDS011;11469;49.024;8.246;2023-04-25T05:43:34;11.70;;;7.55;;
22603;SDS011;11469;49.024;8.246;2023-04-25T05:46:00;8.65;;;6.10;;
22603;SDS011;11469;49.024;8.246;2023-04-25T05:48:25;10.38;;;6.93;;
22603;SDS011;11469;49.024;8.246;2023-04-25T05:50:51;10.73;;;6.63;;
22603;SDS011;11469;49.024;8.246;2023-04-25T05:53:16;9.68;;;6.55;;
22603;SDS011;11469;49.024;8.246;2023-04-25T05:55:42;9.90;;;7.32;;
22603;SDS011;11469;49.024;8.246;2023-04-25T05:58:08;10.93;;;6.82;;
22603;SDS011;11469;49.024;8.246;2023-04-25T06:00:33;9.48;;;6.88;;
22603;SDS011;11469;49.024;8.246;2023-04-25T06:02:59;16.65;;;6.75;;
22603;SDS011;11469;49.024;8.246;2023-04-25T06:05:24;8.80;;;6.90;;
22603;SDS011;11469;49.024;8.246;2023-04-25T06:07:50;10.10;;;7.18;;
22603;SDS011;11469;49.024;8.246;2023-04-25T06:10:15;7.75;;;6.28;;
22603;SDS011;11469;49.024;8.246;2023-04-25T06:12:40;11.80;;;7.68;;
22603;SDS011;11469;49.024;8.246;2023-04-25T06:15:06;12.13;;;7.00;;
22603;SDS011;11469;49.024;8.246;2023-04-25T06:17:32;9.32;;;6.82;;
22603;SDS011;11469;49.024;8.246;2023-04-25T06:19:58;10.30;;;7.18;;
22603;SDS011;11469;49.024;8.246;2023-04-25T06:22:23;10.00;;;6.80;;
22603;SDS011;11469;49.024;8.246;2023-04-25T06:24:49;8.23;;;6.22;;
22603;SDS011;11469;49.024;8.246;2023-04-25T06:27:14;11.20;;;7.00;;
22603;SDS011;11469;49.024;8.246;2023-04-25T06:29:39;9.27;;;6.97;;
22603;SDS011;11469;49.024;8.246;2023-04-25T06:32:05;9.65;;;6.18;;
22603;SDS011;11469;49.024;8.246;2023-04-25T06:34:30;11.18;;;6.90;;
22603;SDS011;11469;49.024;8.246;2023-04-25T06:36:56;11.15;;;8.02;;
22603;SDS011;11469;49.024;8.246;2023-04-25T06:39:21;10.40;;;7.28;;
22603;SDS011;11469;49.024;8.246;2023-04-25T06:41:48;9.88;;;6.45;;
22603;SDS011;11469;49.024;8.246;2023-04-25T06:44:14;11.77;;;5.88;;
22603;SDS011;11469;49.024;8.246;2023-04-25T06:46:40;9.18;;;6.28;;
22603;SDS011;11469;49.024;8.246;2023-04-25T06:49:05;10.35;;;6.43;;
22603;SDS011;11469;49.024;8.246;2023-04-25T06:51:31;9.43;;;6.22;;
22603;SDS011;11469;49.024;8.246;2023-04-25T06:53:56;16.20;;;6.45;;
22603;SDS011;11469;49.024;8.246;2023-04-25T06:56:22;9.30;;;6.50;;
22603;SDS011;11469;49.024;8.246;2023-04-25T06:58:48;11.93;;;6.47;;
22603;SDS011;11469;49.024;8.246;2023-04-25T07:01:14;10.63;;;6.10;;
22603;SDS011;11469;49.024;8.246;2023-04-25T07:03:39;7.63;;;5.93;;
22603;SDS011;11469;49.024;8.246;2023-04-25T07:06:05;11.10;;;6.32;;
22603;SDS011;11469;49.024;8.246;2023-04-25T07:08:30;8.65;;;6.20;;
22603;SDS011;11469;49.024;8.246;2023-04-25T07:10:56;11.77;;;7.22;;
22603;SDS011;11469;49.024;8.246;2023-04-25T07:13:21;10.85;;;6.80;;
22603;SDS011;11469;49.024;8.246;2023-04-25T07:15:47;9.68;;;6.35;;
22603;SDS011;11469;49.024;8.246;2023-04-25T07:18:13;8.50;;;5.80;;
22603;SDS011;11469;49.024;8.246;2023-04-25T07:20:38;10.15;;;7.07;;
22603;SDS011;11469;49.024;8.246;2023-04-25T07:23:04;12.25;;;7.10;;
22603;SDS011;11469;49.024;8.246;2023-04-25T07:25:29;10.50;;;6.20;;
22603;SDS011;11469;49.024;8.246;2023-04-25T07:27:55;11.98;;;6.90;;
22603;SDS011;11469;49.024;8.246;2023-04-25T07:30:21;10.02;;;7.50;;
22603;SDS011;11469;49.024;8.246;2023-04-25T07:32:46;12.95;;;8.32;;
22603;SDS011;11469;49.024;8.246;2023-04-25T07:35:12;13.52;;;7.15;;
22603;SDS011;11469;49.024;8.246;2023-04-25T07:37:38;11.32;;;8.15;;
22603;SDS011;11469;49.024;8.246;2023-04-25T07:40:03;12.85;;;7.60;;
22603;SDS011;11469;49.024;8.246;2023-04-25T07:42:29;11.63;;;8.43;;
22603;SDS011;11469;49.024;8.246;2023-04-25T07:44:55;13.20;;;8.52;;
22603;SDS011;11469;49.024;8.246;2023-04-25T07:47:21;16.30;;;9.02;;
22603;SDS011;11469;49.024;8.246;2023-04-25T07:49:46;12.93;;;9.57;;
22603;SDS011;11469;49.024;8.246;2023-04-25T07:52:11;15.05;;;9.70;;
22603;SDS011;11469;49.024;8.246;2023-04-25T07:54:37;16.42;;;9.63;;
22603;SDS011;11469;49.024;8.246;2023-04-25T07:57:02;15.93;;;10.30;;
22603;SDS011;11469;49.024;8.246;2023-04-25T07:59:28;16.70;;;10.52;;
22603;SDS011;11469;49.024;8.246;2023-04-25T08:01:53;15.05;;;10.38;;
22603;SDS011;11469;49.024;8.246;2023-04-25T08:04:19;16.67;;;10.75;;
22603;SDS011;11469;49.024;8.246;2023-04-25T08:06:44;14.13;;;10.70;;
22603;SDS011;11469;49.024;8.246;2023-04-25T08:09:10;22.45;;;11.90;;
22603;SDS011;11469;49.024;8.246;2023-04-25T08:11:36;17.55;;;11.23;;
22603;SDS011;11469;49.024;8.246;2023-04-25T08:14:02;22.05;;;11.27;;
22603;SDS011;11469;49.024;8.246;2023-04-25T08:16:27;17.50;;;11.05;;
22603;SDS011;11469;49.024;8.246;2023-04-25T08:18:53;17.08;;;11.23;;
22603;SDS011;11469;49.024;8.246;2023-04-25T08:21:19;20.15;;;11.63;;
22603;SDS011;11469;49.024;8.246;2023-04-25T08:23:45;16.98;;;11.63;;
22603;SDS011;11469;49.024;8.246;2023-04-25T08:26:10;20.60;;;11.15;;
22603;SDS011;11469;49.024;8.246;2023-04-25T08:28:36;24.60;;;13.35;;
22603;SDS011;11469;49.024;8.246;2023-04-25T08:31:01;18.70;;;12.98;;
22603;SDS011;11469;49.024;8.246;2023-04-25T08:33:27;18.10;;;12.88;;
22603;SDS011;11469;49.024;8.246;2023-04-25T08:35:52;16.15;;;12.20;;
22603;SDS011;11469;49.024;8.246;2023-04-25T08:38:18;17.95;;;12.65;;
22603;SDS011;11469;49.024;8.246;2023-04-25T08:40:43;16.27;;;12.00;;
22603;SDS011;11469;49.024;8.246;2023-04-25T08:43:09;20.83;;;11.88;;
22603;SDS011;11469;49.024;8.246;2023-04-25T08:45:40;18.90;;;12.77;;
22603;SDS011;11469;49.024;8.246;2023-04-25T08:48:07;18.50;;;12.63;;
22603;SDS011;11469;49.024;8.246;2023-04-25T08:50:38;20.65;;;13.38;;
22603;SDS011;11469;49.024;8.246;2023-04-25T08:53:05;16.95;;;11.40;;
22603;SDS011;11469;49.024;8.246;2023-04-25T08:55:33;19.70;;;13.07;;
22603;SDS011;11469;49.024;8.246;2023-04-25T08:57:59;18.20;;;11.77;;
22603;SDS011;11469;49.024;8.246;2023-04-25T09:00:26;18.80;;;11.85;;
22603;SDS011;11469;49.024;8.246;2023-04-25T09:02:51;21.65;;;12.70;;
22603;SDS011;11469;49.024;8.246;2023-04-25T09:05:18;17.33;;;11.70;;
22603;SDS011;11469;49.024;8.246;2023-04-25T09:07:43;20.13;;;14.50;;
22603;SDS011;11469;49.024;8.246;2023-04-25T09:10:09;21.80;;;11.40;;
22603;SDS011;11469;49.024;8.246;2023-04-25T09:12:34;15.75;;;11.95;;
22603;SDS011;11469;49.024;8.246;2023-04-25T09:15:10;17.92;;;11.57;;
22603;SDS011;11469;49.024;8.246;2023-04-25T09:17:36;14.80;;;10.50;;
22603;SDS011;11469;49.024;8.246;2023-04-25T09:20:06;17.63;;;11.15;;
22603;SDS011;11469;49.024;8.246;2023-04-25T09:22:35;16.38;;;10.50;;
22603;SDS011;11469;49.024;8.246;2023-04-25T09:25:11;15.77;;;10.55;;
22603;SDS011;11469;49.024;8.246;2023-04-25T09:27:49;16.33;;;10.52;;
22603;SDS011;11469;49.024;8.246;2023-04-25T09:30:16;17.70;;;10.15;;
22603;SDS011;11469;49.024;8.246;2023-04-25T09:32:43;15.18;;;10.18;;
22603;SDS011;11469;49.024;8.246;2023-04-25T09:35:08;13.65;;;9.55;;
22603;SDS011;11469;49.024;8.246;2023-04-25T09:37:34;14.32;;;9.50;;
22603;SDS011;11469;49.024;8.246;2023-04-25T09:40:00;13.93;;;9.75;;
22603;SDS011;11469;49.024;8.246;2023-04-25T09:42:31;15.85;;;9.75;;
22603;SDS011;11469;49.024;8.246;2023-04-25T09:44:57;13.98;;;9.57;;
22603;SDS011;11469;49.024;8.246;2023-04-25T09:47:24;16.70;;;12.05;;
22603;SDS011;11469;49.024;8.246;2023-04-25T09:49:50;19.50;;;12.07;;
22603;SDS011;11469;49.024;8.246;2023-04-25T09:52:17;18.73;;;12.45;;
22603;SDS011;11469;49.024;8.246;2023-04-25T09:54:47;20.55;;;13.02;;
22603;SDS011;11469;49.024;8.246;2023-04-25T09:57:15;18.50;;;13.23;;
22603;SDS011;11469;49.024;8.246;2023-04-25T09:59:53;23.60;;;13.05;;
22603;SDS011;11469;49.024;8.246;2023-04-25T10:02:28;23.88;;;13.38;;
22603;SDS011;11469;49.024;8.246;2023-04-25T10:04:54;24.63;;;15.07;;
22603;SDS011;11469;49.024;8.246;2023-04-25T10:07:22;23.13;;;13.98;;
22603;SDS011;11469;49.024;8.246;2023-04-25T10:09:52;27.38;;;15.35;;
22603;SDS011;11469;49.024;8.246;2023-04-25T10:12:28;26.92;;;14.65;;
22603;SDS011;11469;49.024;8.246;2023-04-25T10:14:55;23.27;;;15.60;;
22603;SDS011;11469;49.024;8.246;2023-04-25T10:17:23;27.55;;;13.80;;
22603;SDS011;11469;49.024;8.246;2023-04-25T10:19:48;29.92;;;14.43;;
22603;SDS011;11469;49.024;8.246;2023-04-25T10:22:16;28.77;;;14.48;;
22603;SDS011;11469;49.024;8.246;2023-04-25T10:24:45;25.52;;;15.02;;
22603;SDS011;11469;49.024;8.246;2023-04-25T10:27:11;22.75;;;13.98;;
22603;SDS011;11469;49.024;8.246;2023-04-25T10:29:38;28.42;;;15.07;;
22603;SDS011;11469;49.024;8.246;2023-04-25T10:32:03;24.63;;;13.18;;
22603;SDS011;11469;49.024;8.246;2023-04-25T10:37:05;28.67;;;14.35;;
22603;SDS011;11469;49.024;8.246;2023-04-25T10:39:33;26.10;;;14.50;;
22603;SDS011;11469;49.024;8.246;2023-04-25T10:41:59;26.70;;;12.98;;
22603;SDS011;11469;49.024;8.246;2023-04-25T10:44:27;21.77;;;11.88;;
22603;SDS011;11469;49.024;8.246;2023-04-25T10:46:55;25.40;;;11.52;;
22603;SDS011;11469;49.024;8.246;2023-04-25T10:49:32;21.52;;;11.68;;
22603;SDS011;11469;49.024;8.246;2023-04-25T10:52:32;24.50;;;11.32;;
22603;SDS011;11469;49.024;8.246;2023-04-25T10:54:55;16.67;;;10.90;;
22603;SDS011;11469;49.024;8.246;2023-04-25T10:57:37;22.63;;;12.63;;
22603;SDS011;11469;49.024;8.246;2023-04-25T11:00:19;26.52;;;12.55;;
22603;SDS011;11469;49.024;8.246;2023-04-25T11:02:55;29.73;;;12.13;;
22603;SDS011;11469;49.024;8.246;2023-04-25T11:05:27;29.45;;;12.68;;
22603;SDS011;11469;49.024;8.246;2023-04-25T11:07:56;25.70;;;13.30;;
22603;SDS011;11469;49.024;8.246;2023-04-25T11:10:29;25.98;;;12.70;;
22603;SDS011;11469;49.024;8.246;2023-04-25T11:12:56;23.25;;;12.60;;
22603;SDS011;11469;49.024;8.246;2023-04-25T11:15:23;21.42;;;12.02;;
22603;SDS011;11469;49.024;8.246;2023-04-25T11:17:52;18.58;;;11.38;;
22603;SDS011;11469;49.024;8.246;2023-04-25T11:20:18;22.33;;;13.07;;
22603;SDS011;11469;49.024;8.246;2023-04-25T11:22:44;21.48;;;12.43;;
22603;SDS011;11469;49.024;8.246;2023-04-25T11:25:11;22.45;;;12.00;;
22603;SDS011;11469;49.024;8.246;2023-04-25T11:27:49;26.95;;;13.55;;
22603;SDS011;11469;49.024;8.246;2023-04-25T11:30:19;23.52;;;10.93;;
22603;SDS011;11469;49.024;8.246;2023-04-25T11:32:46;22.00;;;11.98;;
22603;SDS011;11469;49.024;8.246;2023-04-25T11:35:11;18.42;;;10.15;;
22603;SDS011;11469;49.024;8.246;2023-04-25T11:37:39;24.20;;;11.20;;
22603;SDS011;11469;49.024;8.246;2023-04-25T11:40:05;16.30;;;8.60;;
22603;SDS011;11469;49.024;8.246;2023-04-25T11:42:31;16.70;;;8.85;;
22603;SDS011;11469;49.024;8.246;2023-04-25T11:44:58;18.20;;;9.20;;
22603;SDS011;11469;49.024;8.246;2023-04-25T11:47:28;20.40;;;9.65;;
22603;SDS011;11469;49.024;8.246;2023-04-25T11:49:54;21.10;;;9.75;;
22603;SDS011;11469;49.024;8.246;2023-04-25T11:52:20;18.25;;;9.57;;
22603;SDS011;11469;49.024;8.246;2023-04-25T11:54:45;19.60;;;10.38;;
22603;SDS011;11469;49.024;8.246;2023-04-25T11:57:11;21.83;;;10.00;;
22603;SDS011;11469;49.024;8.246;2023-04-25T11:59:37;20.60;;;11.75;;
22603;SDS011;11469;49.024;8.246;2023-04-25T12:02:02;18.42;;;11.25;;
22603;SDS011;11469;49.024;8.246;2023-04-25T12:04:29;22.27;;;10.13;;
22603;SDS011;11469;49.024;8.246;2023-04-25T12:06:56;17.45;;;9.02;;
22603;SDS011;11469;49.024;8.246;2023-04-25T12:09:29;24.10;;;8.57;;
22603;SDS011;11469;49.024;8.246;2023-04-25T12:11:56;16.00;;;8.77;;
22603;SDS011;11469;49.024;8.246;2023-04-25T12:14:25;15.00;;;7.85;;
22603;SDS011;11469;49.024;8.246;2023-04-25T12:16:52;17.75;;;9.05;;
22603;SDS011;11469;49.024;8.246;2023-04-25T12:19:20;14.85;;;8.38;;
22603;SDS011;11469;49.024;8.246;2023-04-25T12:21:46;15.07;;;8.30;;
22603;SDS011;11469;49.024;8.246;2023-04-25T12:24:14;14.30;;;7.93;;
22603;SDS011;11469;49.024;8.246;2023-04-25T12:26:54;17.50;;;8.20;;
22603;SDS011;11469;49.024;8.246;2023-04-25T12:29:25;20.75;;;9.43;;
22603;SDS011;11469;49.024;8.246;2023-04-25T12:31:51;19.67;;;8.60;;
22603;SDS011;11469;49.024;8.246;2023-04-25T12:34:18;12.75;;;7.20;;
22603;SDS011;11469;49.024;8.246;2023-04-25T12:36:44;8.65;;;5.32;;
22603;SDS011;11469;49.024;8.246;2023-04-25T12:39:16;11.95;;;5.03;;
22603;SDS011;11469;49.024;8.246;2023-04-25T12:41:43;7.63;;;3.47;;
22603;SDS011;11469;49.024;8.246;2023-04-25T12:44:09;8.45;;;4.38;;
22603;SDS011;11469;49.024;8.246;2023-04-25T12:46:35;6.40;;;3.65;;
22603;SDS011;11469;49.024;8.246;2023-04-25T12:49:00;9.60;;;5.68;;
22603;SDS011;11469;49.024;8.246;2023-04-25T12:51:26;8.70;;;4.10;;
22603;SDS011;11469;49.024;8.246;2023-04-25T12:53:52;9.85;;;4.95;;
22603;SDS011;11469;49.024;8.246;2023-04-25T12:56:18;5.95;;;4.20;;
22603;SDS011;11469;49.024;8.246;2023-04-25T12:58:43;7.38;;;3.92;;
22603;SDS011;11469;49.024;8.246;2023-04-25T13:01:09;9.40;;;4.82;;
22603;SDS011;11469;49.024;8.246;2023-04-25T13:03:34;8.90;;;5.10;;
22603;SDS011;11469;49.024;8.246;2023-04-25T13:06:00;8.32;;;5.03;;
22603;SDS011;11469;49.024;8.246;2023-04-25T13:08:26;6.55;;;4.30;;
22603;SDS011;11469;49.024;8.246;2023-04-25T13:10:51;9.55;;;6.22;;
22603;SDS011;11469;49.024;8.246;2023-04-25T13:13:16;12.38;;;6.00;;
22603;SDS011;11469;49.024;8.246;2023-04-25T13:15:42;7.50;;;5.20;;
22603;SDS011;11469;49.024;8.246;2023-04-25T13:18:08;6.88;;;4.53;;
22603;SDS011;11469;49.024;8.246;2023-04-25T13:20:33;10.50;;;5.22;;
22603;SDS011;11469;49.024;8.246;2023-04-25T13:22:59;8.65;;;5.38;;
22603;SDS011;11469;49.024;8.246;2023-04-25T13:25:24;7.95;;;5.88;;
22603;SDS011;11469;49.024;8.246;2023-04-25T13:27:50;9.60;;;6.22;;
22603;SDS011;11469;49.024;8.246;2023-04-25T13:30:16;11.88;;;5.78;;
22603;SDS011;11469;49.024;8.246;2023-04-25T13:32:41;10.27;;;6.30;;
22603;SDS011;11469;49.024;8.246;2023-04-25T13:35:08;9.98;;;6.32;;
22603;SDS011;11469;49.024;8.246;2023-04-25T13:37:35;7.85;;;5.65;;
22603;SDS011;11469;49.024;8.246;2023-04-25T13:40:02;10.77;;;6.13;;
22603;SDS011;11469;49.024;8.246;2023-04-25T13:42:33;7.72;;;5.20;;
22603;SDS011;11469;49.024;8.246;2023-04-25T13:44:58;10.18;;;5.95;;
22603;SDS011;11469;49.024;8.246;2023-04-25T13:47:23;10.57;;;4.47;;
22603;SDS011;11469;49.024;8.246;2023-04-25T13:49:50;8.88;;;5.13;;
22603;SDS011;11469;49.024;8.246;2023-04-25T13:52:15;18.00;;;14.98;;
22603;SDS011;11469;49.024;8.246;2023-04-25T13:54:41;5.25;;;4.18;;
22603;SDS011;11469;49.024;8.246;2023-04-25T13:57:06;6.35;;;4.03;;
22603;SDS011;11469;49.024;8.246;2023-04-25T13:59:32;7.28;;;4.88;;
22603;SDS011;11469;49.024;8.246;2023-04-25T14:01:57;10.15;;;5.75;;
22603;SDS011;11469;49.024;8.246;2023-04-25T14:04:23;6.80;;;5.05;;
22603;SDS011;11469;49.024;8.246;2023-04-25T14:06:48;9.07;;;5.68;;
22603;SDS011;11469;49.024;8.246;2023-04-25T14:09:15;10.30;;;4.80;;
22603;SDS011;11469;49.024;8.246;2023-04-25T14:11:40;13.13;;;6.88;;
22603;SDS011;11469;49.024;8.246;2023-04-25T14:14:05;7.97;;;5.53;;
22603;SDS011;11469;49.024;8.246;2023-04-25T14:16:31;8.02;;;5.75;;
22603;SDS011;11469;49.024;8.246;2023-04-25T14:18:57;6.95;;;4.70;;
22603;SDS011;11469;49.024;8.246;2023-04-25T14:21:23;8.68;;;5.20;;
22603;SDS011;11469;49.024;8.246;2023-04-25T14:23:49;7.10;;;6.00;;
22603;SDS011;11469;49.024;8.246;2023-04-25T14:26:14;10.52;;;5.40;;
22603;SDS011;11469;49.024;8.246;2023-04-25T14:28:40;7.43;;;5.38;;
22603;SDS011;11469;49.024;8.246;2023-04-25T14:31:05;8.57;;;5.70;;
22603;SDS011;11469;49.024;8.246;2023-04-25T14:33:31;13.02;;;6.10;;